< < Back
Terminal Aerodrome Forecast


Current Version              Previous Versions:   1  2  3  4  5  6  7  8  9  

Terminal Aerodrome Forecast

862
FTUS42 KTAE 222300
TAFTLH
TAF
KTLH 222320Z 2300/2324 VRB02KT P6SM FEW250
     FM231400 29007KT P6SM SCT050 SCT250=

Latest METAR

373
SAUS80 KWBC 231500 RRB
MTRTLH
METAR KTLH 231453Z 35005KT 10SM CLR 34/23 A3000 RMK AO2 SLP156 T03390228
50003


USA.gov is the U.S. government's official web portal to all federal, state and local government web resources and services.